Time;durP1;ratioP1;P1;durP2;ratioP2;P2;SDS_P1;SDS_P2;PMS_P1;PMS_P2;Temp;Humidity;BMP_temperature;BMP_pressure;BME280_temperature;BME280_humidity;BME280_pressure;Samples;Min_cycle;Max_cycle;Signal;HPM_P1;HPM_P2
2022/05/04 00:01:44;;;;;;;16.50;10.72;;;;;;;11.15;56.70;100425.09;1779649;80;25427;-74
2022/05/04 00:04:10;;;;;;;16.82;10.60;;;;;;;11.17;56.57;100433.70;1778929;80;27319;-73
2022/05/04 00:06:37;;;;;;;16.75;10.43;;;;;;;11.18;56.61;100436.64;1778751;80;25599;-73
2022/05/04 00:09:04;;;;;;;12.33;9.35;;;;;;;11.19;56.38;100436.10;1778909;80;25427;-73
2022/05/04 00:11:31;;;;;;;16.90;11.33;;;;;;;11.17;56.60;100440.47;1778839;80;25577;-73
2022/05/04 00:13:57;;;;;;;16.80;10.15;;;;;;;11.18;56.77;100448.82;1778881;80;25374;-73
2022/05/04 00:16:23;;;;;;;18.45;11.05;;;;;;;11.17;56.62;100449.95;1778824;80;27380;-73
2022/05/04 00:18:49;;;;;;;16.12;9.63;;;;;;;11.16;56.77;100447.55;1778753;80;25525;-73
2022/05/04 00:21:15;;;;;;;16.00;10.35;;;;;;;11.15;56.82;100448.64;1778809;80;29601;-73
2022/05/04 00:23:41;;;;;;;15.48;10.75;;;;;;;11.14;56.93;100453.27;1778790;80;25591;-73
2022/05/04 00:26:07;;;;;;;17.62;11.22;;;;;;;11.11;56.67;100450.37;1778833;80;25649;-73
2022/05/04 00:28:33;;;;;;;17.82;11.28;;;;;;;11.10;56.85;100457.70;1778812;80;27389;-73
2022/05/04 00:30:59;;;;;;;20.48;11.10;;;;;;;11.10;56.96;100462.30;1778724;80;33303;-73
2022/05/04 00:33:25;;;;;;;18.82;11.57;;;;;;;11.08;57.24;100466.67;1778792;80;29641;-74
2022/05/04 00:35:51;;;;;;;16.97;10.50;;;;;;;11.05;57.51;100467.30;1778686;80;25608;-74
2022/05/04 00:38:17;;;;;;;19.15;11.20;;;;;;;11.00;57.62;100467.43;1778845;80;25626;-73
2022/05/04 00:40:43;;;;;;;18.80;11.78;;;;;;;10.98;57.84;100469.09;1778773;80;27324;-73
2022/05/04 00:43:22;;;;;;;16.00;10.38;;;;;;;10.97;57.84;100473.45;1778684;80;32792;-73
2022/05/04 00:45:49;;;;;;;19.05;11.50;;;;;;;10.97;57.79;100474.80;1778804;80;25497;-71
2022/05/04 00:48:15;;;;;;;16.37;11.55;;;;;;;10.96;57.82;100471.84;1778752;80;25430;-72
2022/05/04 00:50:44;;;;;;;16.62;10.63;;;;;;;10.96;58.09;100478.61;1778852;80;25446;-73
2022/05/04 00:53:12;;;;;;;12.82;9.73;;;;;;;10.94;57.98;100473.50;1778938;80;27379;-73
2022/05/04 00:55:39;;;;;;;19.60;10.58;;;;;;;10.94;57.67;100475.41;1778683;80;25571;-73
2022/05/04 01:00:51;;;;;;;16.20;9.85;;;;;;;10.93;57.80;100475.97;1755395;79;25666;-74
2022/05/04 01:03:18;;;;;;;14.58;10.00;;;;;;;10.92;58.03;100478.98;1782444;80;25606;-73
2022/05/04 01:05:45;;;;;;;18.12;10.25;;;;;;;10.90;58.12;100484.70;1782410;80;27431;-72
2022/05/04 01:08:12;;;;;;;14.40;9.25;;;;;;;10.88;58.59;100480.16;1782319;80;25588;-74
2022/05/04 01:10:38;;;;;;;16.62;9.65;;;;;;;10.85;58.78;100479.41;1782405;80;25480;-74
2022/05/04 01:13:04;;;;;;;14.80;9.30;;;;;;;10.83;58.81;100488.39;1782336;80;25558;-72
2022/05/04 01:15:30;;;;;;;16.00;9.78;;;;;;;10.81;58.80;100491.39;1782409;80;25635;-73
2022/05/04 01:17:57;;;;;;;12.63;8.68;;;;;;;10.80;59.18;100490.34;1782385;80;27309;-74
2022/05/04 01:20:24;;;;;;;16.93;9.73;;;;;;;10.78;58.83;100496.06;1782306;80;25455;-74
2022/05/04 01:22:50;;;;;;;12.40;9.03;;;;;;;10.77;58.78;100493.09;1782404;80;25542;-74
2022/05/04 01:25:16;;;;;;;14.93;9.68;;;;;;;10.78;59.01;100489.30;1782329;80;31071;-74
2022/05/04 01:27:42;;;;;;;12.98;8.75;;;;;;;10.77;59.35;100490.39;1782434;80;25457;-74
2022/05/04 01:30:11;;;;;;;15.55;8.98;;;;;;;10.75;59.29;100489.90;1782345;80;27500;-74
2022/05/04 01:32:37;;;;;;;15.23;9.00;;;;;;;10.75;59.29;100490.46;1782509;80;25664;-74
2022/05/04 01:35:04;;;;;;;14.47;9.63;;;;;;;10.73;59.19;100490.77;1782273;80;29625;-74
2022/05/04 01:37:30;;;;;;;14.70;8.53;;;;;;;10.71;59.43;100490.80;1782364;80;25494;-74
2022/05/04 01:39:56;;;;;;;9.85;7.55;;;;;;;10.71;59.24;100488.92;1782416;80;25653;-74
2022/05/04 01:42:24;;;;;;;11.25;7.78;;;;;;;10.69;59.58;100491.11;1782356;80;28115;-73
2022/05/04 01:44:51;;;;;;;13.08;7.65;;;;;;;10.68;59.66;100490.09;1782280;80;25727;-73
2022/05/04 01:47:17;;;;;;;10.88;7.90;;;;;;;10.67;59.64;100497.38;1782355;80;25627;-73
2022/05/04 01:49:43;;;;;;;9.25;6.92;;;;;;;10.66;59.39;100495.80;1782334;80;25392;-73
2022/05/04 01:52:10;;;;;;;9.88;7.20;;;;;;;10.65;59.65;100494.19;1782377;80;25571;-74
2022/05/04 01:54:36;;;;;;;11.25;7.22;;;;;;;10.63;59.85;100492.34;1782360;80;27344;-74
2022/05/04 01:57:03;;;;;;;11.10;6.65;;;;;;;10.62;59.92;100494.78;1782175;80;32707;-72
2022/05/04 01:59:29;;;;;;;11.03;7.42;;;;;;;10.59;60.24;100494.86;1782360;80;25435;-72
2022/05/04 02:01:55;;;;;;;9.18;6.35;;;;;;;10.59;60.08;100495.39;1780367;80;35118;-73
2022/05/04 02:04:22;;;;;;;8.88;7.05;;;;;;;10.59;60.32;100503.50;1778804;80;25535;-73
2022/05/04 02:06:48;;;;;;;11.78;6.60;;;;;;;10.56;60.04;100502.22;1778784;80;27305;-73
2022/05/04 02:09:15;;;;;;;9.15;6.47;;;;;;;10.56;60.59;100505.48;1778670;80;25692;-73
2022/05/04 02:11:41;;;;;;;9.20;6.15;;;;;;;10.53;60.52;100506.09;1778812;80;25456;-73
2022/05/04 02:14:07;;;;;;;11.53;6.55;;;;;;;10.53;60.54;100506.88;1778739;80;26097;-73
2022/05/04 02:16:33;;;;;;;8.28;6.22;;;;;;;10.53;60.63;100506.09;1778792;80;25347;-73
2022/05/04 02:18:59;;;;;;;9.33;5.67;;;;;;;10.51;60.66;100507.73;1778709;80;28322;-73
2022/05/04 02:21:26;;;;;;;11.20;5.90;;;;;;;10.50;60.53;100501.28;1778669;80;25650;-72
2022/05/04 02:23:52;;;;;;;8.83;5.75;;;;;;;10.49;60.87;100498.31;1778702;80;25402;-74
2022/05/04 02:26:19;;;;;;;8.28;6.03;;;;;;;10.46;60.75;100504.58;1778695;80;25620;-72
2022/05/04 02:28:45;;;;;;;8.60;5.87;;;;;;;10.45;60.76;100502.17;1778825;80;25454;-73
2022/05/04 02:31:11;;;;;;;8.43;5.22;;;;;;;10.43;60.97;100513.30;1778812;80;28014;-73
2022/05/04 02:33:38;;;;;;;9.85;6.15;;;;;;;10.42;60.99;100517.12;1778666;80;25572;-73
2022/05/04 02:38:49;;;;;;;7.97;5.70;;;;;;;10.38;61.04;100521.52;1778775;80;25549;-73
2022/05/04 02:41:15;;;;;;;7.55;5.35;;;;;;;10.37;61.23;100524.52;1778922;80;25378;-73
2022/05/04 02:43:41;;;;;;;8.78;5.67;;;;;;;10.36;61.29;100525.08;1778943;80;27320;-73
2022/05/04 02:46:17;;;;;;;8.18;5.30;;;;;;;10.35;61.06;100526.20;1778868;80;25452;-73
2022/05/04 02:48:43;;;;;;;8.70;5.90;;;;;;;10.35;60.96;100523.49;1778894;80;25637;-73
2022/05/04 02:51:10;;;;;;;8.50;5.78;;;;;;;10.34;61.17;100531.34;1750773;80;25875;-73
2022/05/04 02:53:36;;;;;;;9.95;5.83;;;;;;;10.32;61.30;100531.38;1779036;80;25457;-73
2022/05/04 02:56:02;;;;;;;7.00;5.45;;;;;;;10.31;61.08;100541.93;1779037;80;27357;-73
2022/05/04 02:58:29;;;;;;;8.95;5.70;;;;;;;10.30;61.38;100538.44;1779534;80;25655;-73
2022/05/04 03:00:55;;;;;;;8.80;5.90;;;;;;;10.28;61.30;100533.86;1779854;80;25392;-73
2022/05/04 03:03:21;;;;;;;8.00;5.70;;;;;;;10.26;61.35;100535.50;1783267;80;25541;-73
2022/05/04 03:05:47;;;;;;;12.07;7.03;;;;;;;10.26;61.25;100541.47;1783614;80;25357;-73
2022/05/04 03:08:13;;;;;;;8.03;5.33;;;;;;;10.25;61.25;100543.38;1783464;80;27583;-73
2022/05/04 03:13:23;;;;;;;6.80;5.20;;;;;;;10.29;61.21;100558.45;1782511;80;25398;-75
2022/05/04 03:15:49;;;;;;;6.50;5.03;;;;;;;10.21;61.21;100545.63;1782393;80;25976;-74
2022/05/04 03:18:15;;;;;;;8.98;4.65;;;;;;;10.19;61.30;100547.27;1782483;80;32319;-74
2022/05/04 03:20:41;;;;;;;6.50;4.40;;;;;;;10.18;61.25;100548.39;1782476;80;27393;-73
2022/05/04 03:23:08;;;;;;;6.28;4.60;;;;;;;10.16;61.03;100543.81;1782366;80;32852;-73
2022/05/04 03:25:34;;;;;;;7.42;4.55;;;;;;;10.16;60.99;100551.92;1782532;80;25535;-74
2022/05/04 03:28:00;;;;;;;6.67;4.25;;;;;;;10.14;60.88;100548.72;1782443;80;35180;-73
2022/05/04 03:30:26;;;;;;;8.00;4.80;;;;;;;10.15;61.04;100547.64;1782538;80;25421;-73
2022/05/04 03:32:52;;;;;;;8.83;4.62;;;;;;;10.14;61.04;100554.69;1782474;80;27417;-74
2022/05/04 03:35:18;;;;;;;6.95;4.72;;;;;;;10.15;61.09;100558.45;1782355;80;33283;-74
2022/05/04 03:37:44;;;;;;;9.58;5.50;;;;;;;10.12;61.15;100556.89;1782432;80;25546;-74
2022/05/04 03:40:13;;;;;;;9.83;4.95;;;;;;;10.13;61.21;100561.19;1782361;80;34282;-74
2022/05/04 03:42:39;;;;;;;7.60;5.65;;;;;;;10.13;61.53;100568.77;1782622;80;25612;-74
2022/05/04 03:45:07;;;;;;;7.87;5.03;;;;;;;10.10;61.86;100574.20;1782424;80;27425;-74
2022/05/04 03:47:33;;;;;;;7.65;5.80;;;;;;;10.14;61.85;100576.31;1782350;80;25610;-73
2022/05/04 03:49:59;;;;;;;8.65;5.67;;;;;;;10.14;61.72;100575.76;1782450;80;25527;-73
2022/05/04 03:52:25;;;;;;;10.30;6.08;;;;;;;10.18;61.80;100584.06;1782380;80;35118;-73
2022/05/04 03:54:51;;;;;;;9.28;4.87;;;;;;;10.18;61.95;100578.12;1782512;80;25449;-73
2022/05/04 03:57:17;;;;;;;7.42;5.22;;;;;;;10.17;61.65;100577.86;1782353;80;27306;-74
2022/05/04 03:59:43;;;;;;;7.95;4.92;;;;;;;10.17;61.85;100589.23;1782358;80;32712;-74
2022/05/04 04:02:09;;;;;;;8.13;5.28;;;;;;;10.15;61.77;100591.41;1782167;80;25383;-73
2022/05/04 04:04:37;;;;;;;8.30;5.35;;;;;;;10.16;61.66;100597.08;1781873;80;25590;-73
2022/05/04 04:07:04;;;;;;;8.75;4.60;;;;;;;10.16;61.63;100601.93;1781951;80;25461;-72
2022/05/04 04:09:30;;;;;;;8.58;4.87;;;;;;;10.15;61.57;100604.93;1781903;80;27475;-74
2022/05/04 04:11:56;;;;;;;6.72;5.03;;;;;;;10.15;61.65;100611.69;1781791;80;25578;-74
2022/05/04 04:14:22;;;;;;;8.00;5.72;;;;;;;10.17;61.58;100607.60;1781869;80;25614;-73
2022/05/04 04:16:48;;;;;;;8.90;5.83;;;;;;;10.19;61.42;100605.95;1781845;80;25646;-73
2022/05/04 04:19:14;;;;;;;7.60;4.67;;;;;;;10.20;61.31;100611.06;1781911;80;25587;-74
2022/05/04 04:21:53;;;;;;;7.40;4.28;;;;;;;10.19;60.97;100620.27;1781812;80;27414;-73
2022/05/04 04:24:22;;;;;;;7.45;4.25;;;;;;;10.19;60.75;100614.06;1781972;80;25394;-73
2022/05/04 04:26:48;;;;;;;8.60;4.20;;;;;;;10.20;60.60;100625.11;1781780;80;25610;-73
2022/05/04 04:29:14;;;;;;;7.62;4.10;;;;;;;10.21;60.57;100623.46;1781827;80;26225;-73
2022/05/04 04:31:40;;;;;;;6.85;4.17;;;;;;;10.22;60.44;100616.97;1781881;80;25533;-72
2022/05/04 04:34:07;;;;;;;8.45;4.42;;;;;;;10.24;60.20;100620.73;1781843;80;27377;-72
2022/05/04 04:36:34;;;;;;;6.30;4.03;;;;;;;10.23;59.97;100627.22;1781730;80;25390;-72
2022/05/04 04:39:01;;;;;;;6.35;4.12;;;;;;;10.23;59.70;100629.92;1781852;80;25414;-73
2022/05/04 04:41:27;;;;;;;8.13;4.08;;;;;;;10.21;59.48;100625.38;1781733;80;26325;-72
2022/05/04 04:43:53;;;;;;;8.25;4.37;;;;;;;10.22;59.54;100633.75;1781867;80;25439;-72
2022/05/04 04:46:19;;;;;;;5.20;3.37;;;;;;;10.24;59.31;100634.25;1781788;80;27388;-72
2022/05/04 04:48:46;;;;;;;7.83;4.25;;;;;;;10.23;59.26;100637.51;1781753;80;25839;-72
2022/05/04 04:51:12;;;;;;;6.12;3.62;;;;;;;10.25;58.95;100639.36;1781829;80;25583;-72
2022/05/04 04:53:39;;;;;;;9.60;3.90;;;;;;;10.22;58.54;100644.00;1781790;80;25600;-73
2022/05/04 04:56:06;;;;;;;5.97;3.17;;;;;;;10.23;58.46;100651.55;1781839;80;25611;-73
2022/05/04 04:58:32;;;;;;;6.70;3.45;;;;;;;10.23;58.37;100642.91;1781863;80;27311;-74
2022/05/04 05:00:59;;;;;;;20.55;4.10;;;;;;;10.24;58.03;100640.45;1781733;80;25623;-73
2022/05/04 05:03:25;;;;;;;5.97;3.27;;;;;;;10.26;57.78;100640.94;1781778;80;25410;-74
2022/05/04 05:05:52;;;;;;;8.98;3.87;;;;;;;10.29;57.77;100636.86;1781808;80;25636;-74
2022/05/04 05:08:18;;;;;;;7.42;3.65;;;;;;;10.34;57.66;100637.35;1781843;80;25563;-73
2022/05/04 05:10:44;;;;;;;8.48;3.05;;;;;;;10.40;57.84;100642.90;1781832;80;28001;-74
2022/05/04 05:13:10;;;;;;;7.75;3.58;;;;;;;10.46;57.45;100645.21;1781787;80;25540;-73
2022/05/04 05:18:23;;;;;;;8.58;3.58;;;;;;;10.56;56.83;100655.05;1781797;80;25636;-72
2022/05/04 05:20:55;;;;;;;7.42;3.67;;;;;;;10.59;56.73;100650.92;1781851;80;25389;-73
2022/05/04 05:23:23;;;;;;;7.78;3.65;;;;;;;10.69;56.85;100650.72;1781785;80;27300;-73
2022/05/04 05:25:50;;;;;;;6.80;3.37;;;;;;;10.80;56.58;100641.88;1781725;80;25414;-73
2022/05/04 05:28:16;;;;;;;8.15;3.47;;;;;;;10.93;56.49;100641.59;1781798;80;25579;-73
2022/05/04 05:30:42;;;;;;;6.90;3.17;;;;;;;11.02;55.85;100652.77;1781764;80;25745;-73
2022/05/04 05:33:09;;;;;;;5.20;3.05;;;;;;;11.09;55.51;100661.83;1781877;80;25544;-73
2022/05/04 05:35:35;;;;;;;5.55;3.08;;;;;;;11.22;55.31;100672.41;1781832;80;27382;-74
2022/05/04 05:38:01;;;;;;;4.60;2.67;;;;;;;11.35;54.83;100676.97;1781718;80;25615;-73
2022/05/04 05:40:27;;;;;;;3.50;2.60;;;;;;;11.50;54.29;100675.83;1781817;80;25497;-73
2022/05/04 05:42:57;;;;;;;;;;;;;;;11.60;53.68;100669.39;1784399;80;25603;-73
2022/05/04 05:45:23;;;;;;;5.67;2.40;;;;;;;11.71;52.80;100675.36;1781854;80;25450;-73
2022/05/04 05:47:49;;;;;;;5.50;2.40;;;;;;;11.80;52.46;100678.95;1781803;80;27441;-73
2022/05/04 05:50:17;;;;;;;5.85;2.42;;;;;;;11.90;52.43;100675.17;1781742;80;25430;-73
2022/05/04 05:52:44;;;;;;;5.20;2.65;;;;;;;12.00;51.39;100681.73;1781808;80;25404;-74
2022/05/04 05:55:11;;;;;;;2.42;2.00;;;;;;;12.05;50.71;100682.17;1781785;80;25627;-75
2022/05/04 05:57:37;;;;;;;4.45;2.90;;;;;;;12.06;50.10;100683.78;1781771;80;25561;-74
2022/05/04 06:00:05;;;;;;;3.40;2.70;;;;;;;12.12;50.23;100686.59;1781799;80;27374;-73
2022/05/04 06:02:33;;;;;;;2.80;2.17;;;;;;;12.22;50.05;100685.55;1781018;80;25649;-73
2022/05/04 06:04:59;;;;;;;4.30;2.58;;;;;;;12.33;49.92;100686.33;1778790;80;25390;-73
2022/05/04 06:07:25;;;;;;;4.95;2.70;;;;;;;12.43;49.41;100679.02;1778723;80;25758;-73
2022/05/04 06:09:52;;;;;;;6.00;2.45;;;;;;;12.53;48.99;100686.89;1778792;80;25379;-74
2022/05/04 06:12:18;;;;;;;5.42;2.40;;;;;;;12.64;48.81;100687.44;1778729;80;28040;-73
2022/05/04 06:14:45;;;;;;;4.97;3.00;;;;;;;12.73;48.59;100681.48;1778633;80;25524;-73
2022/05/04 06:17:11;;;;;;;6.37;2.30;;;;;;;12.85;48.15;100680.31;1778637;80;25409;-74
2022/05/04 06:19:38;;;;;;;3.17;2.27;;;;;;;13.01;48.04;100694.27;1778705;80;25682;-74
2022/05/04 06:22:04;;;;;;;5.25;2.52;;;;;;;13.20;47.89;100700.78;1778796;80;25397;-74
2022/05/04 06:24:30;;;;;;;7.00;2.58;;;;;;;13.39;47.38;100707.31;1778767;80;28193;-73
2022/05/04 06:26:56;;;;;;;15.48;4.92;;;;;;;13.61;47.30;100698.79;1778651;80;33490;-74
2022/05/04 06:34:06;;;;;;;9.43;2.70;;;;;;;13.89;46.83;100695.17;1778754;80;25392;-73
2022/05/04 06:34:35;;;;;;;6.20;2.70;;;;;;;14.38;45.89;100701.73;1778771;80;25445;-73
2022/05/04 06:37:01;;;;;;;6.37;2.22;;;;;;;14.69;45.34;100702.88;1778703;80;27314;-73
2022/05/04 06:39:27;;;;;;;4.83;2.27;;;;;;;14.97;44.88;100698.91;1778606;80;25618;-69
2022/05/04 06:41:53;;;;;;;6.80;3.20;;;;;;;15.19;44.27;100690.44;1778757;80;25530;-74
2022/05/04 06:44:19;;;;;;;4.33;1.98;;;;;;;15.32;43.88;100689.94;1778671;80;27837;-72
2022/05/04 06:46:45;;;;;;;5.05;2.17;;;;;;;15.47;43.43;100688.55;1778795;80;25438;-73
2022/05/04 06:49:11;;;;;;;6.83;2.40;;;;;;;15.58;42.34;100693.03;1778664;80;27312;-73
2022/05/04 06:51:38;;;;;;;3.05;2.17;;;;;;;15.75;42.67;100696.19;1778652;80;25561;-74
2022/05/04 06:54:04;;;;;;;5.15;2.17;;;;;;;15.94;42.32;100687.56;1778764;80;25381;-74
2022/05/04 06:56:30;;;;;;;6.75;2.27;;;;;;;16.15;41.87;100693.75;1778317;80;25531;-74
2022/05/04 06:58:56;;;;;;;5.62;2.65;;;;;;;16.24;41.22;100691.75;1778799;80;25627;-74
2022/05/04 07:01:22;;;;;;;6.83;2.12;;;;;;;16.27;41.17;100697.09;1778734;80;27440;-74
2022/05/04 07:03:48;;;;;;;7.08;2.02;;;;;;;16.36;40.95;100699.17;1780335;80;25535;-74
2022/05/04 07:06:14;;;;;;;14.35;2.40;;;;;;;16.42;40.13;100704.63;1781771;80;25426;-74
2022/05/04 07:08:42;;;;;;;5.87;2.45;;;;;;;16.47;40.26;100702.83;1781750;80;25622;-74
2022/05/04 07:11:08;;;;;;;5.70;2.10;;;;;;;16.50;40.03;100707.04;1781826;80;25529;-75
2022/05/04 07:13:34;;;;;;;3.12;1.80;;;;;;;16.54;40.05;100702.48;1781753;80;27982;-74
2022/05/04 07:16:01;;;;;;;4.30;1.87;;;;;;;16.64;40.10;100705.92;1781660;80;25442;-74
2022/05/04 07:18:27;;;;;;;6.72;2.33;;;;;;;16.85;40.23;100698.44;1781727;80;25470;-73
2022/05/04 07:20:53;;;;;;;4.12;1.85;;;;;;;16.95;39.83;100710.27;1781714;80;25661;-73
2022/05/04 07:23:19;;;;;;;6.10;2.30;;;;;;;17.03;39.62;100709.94;1781816;80;25618;-73
2022/05/04 07:25:45;;;;;;;9.48;2.30;;;;;;;17.13;39.26;100714.16;1781756;80;27406;-74
2022/05/04 07:28:11;;;;;;;3.70;2.02;;;;;;;17.18;38.97;100717.45;1781756;80;25696;-74
2022/05/04 07:30:38;;;;;;;5.30;1.90;;;;;;;17.28;38.77;100720.84;1781896;80;25600;-74
2022/05/04 07:33:04;;;;;;;5.62;2.27;;;;;;;17.36;38.58;100719.92;1781909;80;26233;-74
2022/05/04 07:35:30;;;;;;;4.03;2.47;;;;;;;17.50;38.48;100714.89;1781946;80;25533;-74
2022/05/04 07:37:57;;;;;;;7.42;2.50;;;;;;;17.54;38.26;100715.78;1781885;80;27310;-73
2022/05/04 07:43:07;;;;;;;4.83;2.12;;;;;;;17.60;37.76;100715.55;1782061;80;25556;-73
2022/05/04 07:45:35;;;;;;;6.67;2.40;;;;;;;17.57;38.00;100724.44;1781860;80;26394;-73
2022/05/04 07:48:01;;;;;;;4.15;2.17;;;;;;;17.50;37.60;100723.65;1781935;80;25539;-73
2022/05/04 07:50:28;;;;;;;3.42;1.92;;;;;;;17.65;37.97;100724.87;1781928;80;27388;-73
2022/05/04 07:52:54;;;;;;;5.83;1.90;;;;;;;18.02;37.81;100734.36;1781929;80;25560;-71
2022/05/04 07:55:20;;;;;;;5.05;1.77;;;;;;;18.46;37.85;100737.10;1781811;80;25447;-72
2022/05/04 07:57:48;;;;;;;4.92;2.05;;;;;;;18.97;37.07;100739.18;1781801;80;26301;-72
2022/05/04 08:05:45;;;;;;;3.75;1.60;;;;;;;20.41;35.75;100744.34;1778830;80;25647;-71
2022/05/04 08:08:12;;;;;;;2.72;1.98;;;;;;;20.86;35.03;100740.05;1778849;80;25457;-72
2022/05/04 08:10:38;;;;;;;4.67;1.90;;;;;;;21.27;34.73;100734.77;1778810;80;26221;-71
2022/05/04 08:13:04;;;;;;;5.17;1.72;;;;;;;21.67;34.32;100740.83;1778865;80;25597;-73
2022/05/04 08:15:31;;;;;;;3.62;2.15;;;;;;;22.06;33.32;100743.86;1778843;80;27345;-72
2022/05/04 08:17:58;;;;;;;6.25;2.00;;;;;;;22.36;33.30;100736.93;1778738;80;25727;-73
2022/05/04 08:20:27;;;;;;;4.17;2.25;;;;;;;22.59;32.28;100745.00;1778840;80;25583;-73
2022/05/04 08:22:54;;;;;;;4.17;2.33;;;;;;;22.86;32.22;100747.59;1778677;80;25605;-73
2022/05/04 08:25:20;;;;;;;5.17;1.90;;;;;;;23.30;31.81;100747.53;1778394;80;25370;-72
2022/05/04 08:27:46;;;;;;;8.08;2.08;;;;;;;23.70;31.43;100745.00;1778607;80;27328;-73
2022/05/04 08:30:12;;;;;;;4.47;2.08;;;;;;;24.12;30.64;100742.80;1778722;80;25793;-73
2022/05/04 08:32:38;;;;;;;3.65;1.85;;;;;;;24.35;30.40;100751.53;1778667;80;25558;-73
2022/05/04 08:35:06;;;;;;;4.72;2.00;;;;;;;24.43;29.55;100741.27;1778834;80;25611;-73
2022/05/04 08:37:32;;;;;;;4.65;2.20;;;;;;;24.64;29.43;100743.88;1778832;80;25547;-73
2022/05/04 08:39:58;;;;;;;2.95;1.45;;;;;;;24.82;28.92;100751.59;1778858;80;27396;-73
2022/05/04 08:42:24;;;;;;;4.58;1.40;;;;;;;24.94;28.79;100744.86;1778728;80;25396;-73
2022/05/04 08:44:57;;;;;;;5.25;1.90;;;;;;;25.20;28.61;100741.47;1750671;80;25515;-73
2022/05/04 08:47:29;;;;;;;4.90;2.15;;;;;;;25.42;27.53;100747.77;1778750;80;25666;-73
2022/05/04 08:49:55;;;;;;;2.42;1.60;;;;;;;25.55;27.64;100750.30;1778884;80;25549;-72
2022/05/04 08:52:22;;;;;;;2.98;1.62;;;;;;;25.71;27.68;100752.04;1778820;80;27262;-74
2022/05/04 08:54:50;;;;;;;4.35;2.00;;;;;;;25.94;27.11;100752.13;1778725;80;25438;-73
2022/05/04 08:57:16;;;;;;;3.37;2.05;;;;;;;26.04;26.64;100762.39;1750453;80;25498;-73
2022/05/04 08:59:43;;;;;;;3.02;1.62;;;;;;;26.16;26.58;100752.83;1778799;80;25730;-74
2022/05/04 09:02:11;;;;;;;4.47;1.40;;;;;;;26.33;26.22;100749.76;1778824;80;25538;-72
2022/05/04 09:04:42;;;;;;;4.05;1.72;;;;;;;26.54;26.15;100751.58;1778719;80;27885;-72
2022/05/04 09:07:23;;;;;;;4.83;1.62;;;;;;;26.79;25.79;100754.80;1778703;80;25661;-71
2022/05/04 09:09:51;;;;;;;8.53;1.77;;;;;;;26.75;25.21;100754.02;1778799;80;25403;-71
2022/05/04 09:12:18;;;;;;;3.73;1.40;;;;;;;26.67;25.21;100754.70;1779020;80;25791;-71
2022/05/04 09:14:46;;;;;;;4.65;1.15;;;;;;;26.75;25.14;100748.48;1778836;80;25380;-72
2022/05/04 09:17:15;;;;;;;6.03;1.60;;;;;;;26.86;24.68;100752.56;1778811;80;27414;-72
2022/05/04 09:22:42;;;;;;;5.25;1.25;;;;;;;26.94;24.32;100746.53;1778214;80;26228;-71
2022/05/04 09:25:19;;;;;;;2.50;1.35;;;;;;;27.11;24.40;100747.56;1778506;80;26173;-71
2022/05/04 09:27:47;;;;;;;7.97;3.37;;;;;;;27.38;24.09;100746.31;1749985;80;25640;-73
2022/05/04 09:30:13;;;;;;;5.75;1.72;;;;;;;27.33;23.69;100741.22;1778547;80;27963;-73
2022/05/04 09:32:41;;;;;;;2.37;1.32;;;;;;;27.35;23.66;100744.97;1749923;80;25766;-72
2022/05/04 09:35:15;;;;;;;4.37;1.75;;;;;;;27.46;23.65;100749.78;1750232;80;25803;-72
2022/05/04 09:46:10;;;;;;;4.65;1.22;;;;;;;27.86;22.88;100748.72;1778302;80;25555;-73
2022/05/04 09:48:36;;;;;;;3.50;1.52;;;;;;;28.05;22.62;100744.52;1778112;80;25756;-73
2022/05/04 09:51:06;;;;;;;7.45;1.65;;;;;;;28.21;22.54;100755.01;1778352;80;25569;-73
2022/05/04 09:53:36;;;;;;;4.83;1.75;;;;;;;28.24;22.31;100745.05;1778494;80;25563;-72
2022/05/04 09:56:03;;;;;;;5.28;1.60;;;;;;;28.28;22.01;100745.19;1778229;80;27315;-71
2022/05/04 09:58:31;;;;;;;3.72;1.40;;;;;;;28.35;21.83;100747.66;1778246;80;25627;-72
2022/05/04 10:00:59;;;;;;;3.25;1.50;;;;;;;28.46;21.30;100730.21;1778500;80;25489;-72
2022/05/04 10:03:26;;;;;;;4.28;1.70;;;;;;;28.38;21.72;100738.48;1778155;80;25710;-73
2022/05/04 10:05:56;;;;;;;2.98;1.40;;;;;;;28.65;21.37;100732.91;1778467;80;25403;-72
2022/05/04 10:08:23;;;;;;;5.75;1.30;;;;;;;28.90;21.31;100726.14;1778471;80;26829;-73
2022/05/04 10:10:53;;;;;;;3.33;1.30;;;;;;;29.15;21.33;100727.86;1778135;80;25710;-72
2022/05/04 10:13:22;;;;;;;2.65;1.50;;;;;;;29.15;20.54;100719.50;1778558;80;25721;-72
2022/05/04 10:15:55;;;;;;;4.27;1.67;;;;;;;29.35;20.84;100733.45;1778615;80;25627;-73
2022/05/04 10:18:26;;;;;;;2.00;1.27;;;;;;;29.64;20.61;100740.46;1778145;80;25611;-73
2022/05/04 10:21:13;;;;;;;3.02;1.20;;;;;;;29.76;20.54;100739.80;1778405;80;27923;-74
2022/05/04 10:23:49;;;;;;;4.05;1.92;;;;;;;29.98;19.95;100730.39;1778325;80;25391;-67
2022/05/04 10:26:17;;;;;;;2.75;1.40;;;;;;;30.04;19.93;100727.27;1778325;80;25688;-65
2022/05/04 10:31:29;;;;;;;3.80;1.22;;;;;;;30.27;19.80;100725.55;1778440;80;25568;-64
2022/05/04 10:34:02;;;;;;;6.10;1.50;;;;;;;29.76;19.37;100719.73;1778110;80;29576;-64
2022/05/04 10:36:30;;;;;;;3.05;1.40;;;;;;;29.63;19.36;100721.57;1778328;80;25691;-65
2022/05/04 10:39:01;;;;;;;4.70;1.80;;;;;;;29.36;19.16;100719.72;1778514;80;25697;-66
2022/05/04 10:41:37;;;;;;;3.45;1.20;;;;;;;29.09;18.78;100722.59;1778185;80;25756;-66
2022/05/04 10:44:05;;;;;;;4.53;1.20;;;;;;;28.97;19.46;100727.40;1776738;80;25489;-66
2022/05/04 10:46:33;;;;;;;5.15;3.05;;;;;;;28.91;19.33;100724.30;1750268;80;28092;-66
2022/05/04 10:49:04;;;;;;;5.00;3.05;;;;;;;28.80;19.41;100722.33;1778453;80;25615;-67
2022/05/04 10:51:37;;;;;;;3.60;1.45;;;;;;;28.35;19.50;100730.39;1778583;80;25634;-65
2022/05/04 10:54:19;;;;;;;4.03;1.42;;;;;;;27.82;19.49;100726.34;1777991;80;26005;-67
2022/05/04 10:56:52;;;;;;;4.00;1.55;;;;;;;27.13;19.67;100720.78;1777716;80;25722;-67
2022/05/04 10:59:36;;;;;;;5.30;1.42;;;;;;;26.40;19.64;100718.42;1778865;80;27334;-67
2022/05/04 11:02:07;;;;;;;3.83;1.25;;;;;;;25.83;20.77;100712.59;1778454;80;25790;-66
2022/05/04 11:04:35;;;;;;;5.92;1.35;;;;;;;26.15;20.72;100711.66;1778905;80;25658;-67
2022/05/04 11:07:06;;;;;;;10.40;1.35;;;;;;;26.39;20.86;100715.45;1781732;80;26198;-71
2022/05/04 11:09:42;;;;;;;4.47;1.22;;;;;;;26.76;20.22;100712.61;1781436;80;25585;-73
2022/05/04 11:12:10;;;;;;;7.28;1.60;;;;;;;26.87;20.79;100709.14;1781580;80;27421;-71
2022/05/04 11:14:37;;;;;;;4.03;1.25;;;;;;;27.24;19.58;100709.55;1781487;80;25650;-71
2022/05/04 11:17:11;;;;;;;3.87;1.20;;;;;;;27.01;19.78;100704.83;1781379;80;25554;-70
2022/05/04 11:19:44;;;;;;;1.52;1.30;;;;;;;26.98;20.06;100699.31;1780985;80;25600;-70
2022/05/04 11:22:13;;;;;;;2.60;1.72;;;;;;;27.45;20.01;100697.42;1781705;80;25616;-71
2022/05/04 11:24:39;;;;;;;4.83;1.50;;;;;;;27.85;20.02;100695.72;1780789;80;27319;-71
2022/05/04 11:27:06;;;;;;;2.15;1.40;;;;;;;28.27;19.80;100690.77;1781440;80;25839;-71
2022/05/04 11:29:33;;;;;;;1.95;1.30;;;;;;;28.62;19.73;100691.43;1781587;80;25675;-71
2022/05/04 11:32:04;;;;;;;3.72;1.40;;;;;;;28.80;19.33;100689.70;1781325;80;25641;-72
2022/05/04 11:34:36;;;;;;;3.90;1.42;;;;;;;29.04;19.40;100698.80;1781636;80;25793;-71
2022/05/04 11:37:07;;;;;;;3.72;1.50;;;;;;;29.29;18.97;100698.20;1781583;80;27333;-73
2022/05/04 11:39:35;;;;;;;4.70;1.40;;;;;;;29.46;18.75;100696.23;1781113;80;25792;-68
2022/05/04 11:42:05;;;;;;;3.75;1.52;;;;;;;29.58;18.88;100696.99;1781741;80;25425;-68
2022/05/04 11:44:32;;;;;;;3.52;1.52;;;;;;;29.70;18.91;100697.72;1781563;80;25650;-68
2022/05/04 11:47:01;;;;;;;2.10;1.35;;;;;;;29.84;18.72;100700.83;1781335;80;25646;-70
2022/05/04 11:49:31;;;;;;;4.60;1.47;;;;;;;29.86;18.07;100699.00;1781595;80;27324;-67
2022/05/04 11:51:59;;;;;;;3.15;1.67;;;;;;;29.20;17.86;100693.97;1781486;80;25558;-67
2022/05/04 11:54:26;;;;;;;3.52;1.25;;;;;;;28.98;18.37;100689.39;1781443;80;25535;-67
2022/05/04 11:56:53;;;;;;;5.33;1.45;;;;;;;29.09;18.42;100691.19;1754991;80;25789;-67
2022/05/04 11:59:20;;;;;;;5.78;1.62;;;;;;;29.22;18.60;100685.19;1781580;80;25648;-67
2022/05/04 12:01:47;;;;;;;6.70;4.53;;;;;;;29.53;18.40;100684.34;1781236;80;27288;-67